createdAt,value
2023-03-28T00:02:08.503Z,2.40
2023-03-28T00:04:37.539Z,2.30
2023-03-28T00:07:05.761Z,2.30
2023-03-28T00:09:33.086Z,2.30
2023-03-28T00:11:59.916Z,2.20
2023-03-28T00:14:26.779Z,2.20
2023-03-28T00:16:53.646Z,2.20
2023-03-28T00:19:20.818Z,2.20
2023-03-28T00:21:49.581Z,2.10
2023-03-28T00:24:21.901Z,2.10
2023-03-28T00:26:54.901Z,2.10
2023-03-28T00:29:23.006Z,2.10
2023-03-28T00:31:50.683Z,2.10
2023-03-28T00:34:18.032Z,2.00
2023-03-28T00:36:44.958Z,2.00
2023-03-28T00:39:13.589Z,1.90
2023-03-28T00:41:43.543Z,1.90
2023-03-28T00:44:47.659Z,1.90
2023-03-28T00:47:25.777Z,1.90
2023-03-28T00:49:55.620Z,1.90
2023-03-28T00:52:24.300Z,1.80
2023-03-28T00:54:51.510Z,1.80
2023-03-28T00:57:18.798Z,1.80
2023-03-28T00:59:45.916Z,1.70
2023-03-28T01:02:12.741Z,1.70
2023-03-28T01:05:06.123Z,1.60
2023-03-28T01:07:39.748Z,1.60
2023-03-28T01:10:08.327Z,1.60
2023-03-28T01:12:35.710Z,1.50
2023-03-28T01:15:03.171Z,1.50
2023-03-28T01:17:30.838Z,1.50
2023-03-28T01:20:26.742Z,1.40
2023-03-28T01:22:56.294Z,1.30
2023-03-28T01:25:52.283Z,1.30
2023-03-28T01:28:37.447Z,1.20
2023-03-28T01:31:25.338Z,1.10
2023-03-28T01:34:13.898Z,1.10
2023-03-28T01:36:43.773Z,1.00
2023-03-28T01:39:21.990Z,1.00
2023-03-28T01:42:10.764Z,0.90
2023-03-28T01:45:07.431Z,1.00
2023-03-28T01:47:34.352Z,0.90
2023-03-28T01:50:26.540Z,0.90
2023-03-28T01:52:59.755Z,0.90
2023-03-28T01:55:41.789Z,0.90
2023-03-28T01:58:29.481Z,0.90
2023-03-28T02:01:05.501Z,0.80
2023-03-28T02:03:35.058Z,0.80
2023-03-28T02:06:04.911Z,0.80
2023-03-28T02:08:34.949Z,0.80
2023-03-28T02:11:01.877Z,0.80
2023-03-28T02:13:34.218Z,0.80
2023-03-28T02:16:02.285Z,0.70
2023-03-28T02:18:34.211Z,0.70
2023-03-28T02:21:05.857Z,0.70
2023-03-28T02:23:40.790Z,0.70
2023-03-28T02:26:07.677Z,0.60
2023-03-28T02:28:37.009Z,0.60
2023-03-28T02:31:05.130Z,0.60
2023-03-28T02:33:40.894Z,0.60
2023-03-28T02:36:26.464Z,0.50
2023-03-28T02:39:22.120Z,0.50
2023-03-28T02:42:07.407Z,0.50
2023-03-28T02:45:10.188Z,0.50
2023-03-28T02:47:44.371Z,0.50
2023-03-28T02:50:23.102Z,0.40
2023-03-28T02:53:05.234Z,0.40
2023-03-28T02:55:49.131Z,0.40
2023-03-28T02:58:22.932Z,0.40
2023-03-28T03:00:50.412Z,0.30
2023-03-28T03:03:17.907Z,0.30
2023-03-28T03:05:46.020Z,0.30
2023-03-28T03:08:12.940Z,0.30
2023-03-28T03:10:39.892Z,0.20
2023-03-28T03:13:06.719Z,0.20
2023-03-28T03:15:35.750Z,0.20
2023-03-28T03:18:02.725Z,0.20
2023-03-28T03:20:33.565Z,0.20
2023-03-28T03:23:01.508Z,0.10
2023-03-28T03:25:28.518Z,0.10
2023-03-28T03:27:55.311Z,0.20
2023-03-28T03:30:22.239Z,0.10
2023-03-28T03:32:49.210Z,0.10
2023-03-28T03:35:16.222Z,0.10
2023-03-28T03:37:43.027Z,0.00
2023-03-28T03:40:10.096Z,0.00
2023-03-28T03:42:37.362Z,0.00
2023-03-28T03:45:05.194Z,0.00
2023-03-28T03:47:32.449Z,-0.10
2023-03-28T03:49:59.293Z,-0.10
2023-03-28T03:52:26.178Z,-0.10
2023-03-28T03:54:53.288Z,-0.10
2023-03-28T03:57:20.388Z,-0.20
2023-03-28T03:59:47.484Z,-0.20
2023-03-28T04:02:14.473Z,-0.20
2023-03-28T04:04:41.511Z,-0.20
2023-03-28T04:07:08.346Z,-0.20
2023-03-28T04:09:35.177Z,-0.20
2023-03-28T04:12:01.960Z,-0.30
2023-03-28T04:14:28.716Z,-0.30
2023-03-28T04:16:56.256Z,-0.30
2023-03-28T04:19:24.369Z,-0.30
2023-03-28T04:21:52.613Z,-0.30
2023-03-28T04:24:24.318Z,-0.30
2023-03-28T04:26:56.031Z,-0.40
2023-03-28T04:29:32.641Z,-0.40
2023-03-28T04:31:59.746Z,-0.40
2023-03-28T04:34:30.120Z,-0.40
2023-03-28T04:37:01.952Z,-0.40
2023-03-28T04:39:35.721Z,-0.40
2023-03-28T04:42:05.429Z,-0.50
2023-03-28T04:44:32.333Z,-0.50
2023-03-28T04:46:59.717Z,-0.50
2023-03-28T04:49:26.818Z,-0.50
2023-03-28T04:51:53.973Z,-0.60
2023-03-28T04:54:20.803Z,-0.60
2023-03-28T04:56:50.951Z,-0.60
2023-03-28T04:59:18.410Z,-0.60
2023-03-28T05:01:49.716Z,-0.60
2023-03-28T05:04:17.801Z,-0.70
2023-03-28T05:06:49.437Z,-0.60
2023-03-28T05:09:16.521Z,-0.60
2023-03-28T05:11:44.058Z,-0.70
2023-03-28T05:14:11.188Z,-0.70
2023-03-28T05:16:38.189Z,-0.70
2023-03-28T05:19:05.461Z,-0.70
2023-03-28T05:21:32.330Z,-0.70
2023-03-28T05:23:59.175Z,-0.70
2023-03-28T05:26:26.064Z,-0.80
2023-03-28T05:28:53.020Z,-0.70
2023-03-28T05:31:19.928Z,-0.80
2023-03-28T05:33:46.730Z,-0.70
2023-03-28T05:36:13.542Z,-0.70
2023-03-28T05:38:42.284Z,-0.70
2023-03-28T05:41:09.143Z,-0.70
2023-03-28T05:43:35.994Z,-0.70
2023-03-28T05:46:03.002Z,-0.70
2023-03-28T05:48:29.862Z,-0.70
2023-03-28T05:50:56.893Z,-0.70
2023-03-28T05:53:23.734Z,-0.70
2023-03-28T05:55:51.021Z,-0.60
2023-03-28T05:58:17.809Z,-0.60
2023-03-28T06:00:44.892Z,-0.50
2023-03-28T06:03:16.582Z,-0.50
2023-03-28T06:05:44.528Z,-0.40
2023-03-28T06:08:12.077Z,-0.40
2023-03-28T06:10:39.080Z,-0.40
2023-03-28T06:13:05.941Z,-0.30
2023-03-28T06:15:33.282Z,-0.40
2023-03-28T06:18:00.220Z,-0.30
2023-03-28T06:20:27.326Z,-0.20
2023-03-28T06:22:54.302Z,-0.20
2023-03-28T06:25:21.073Z,-0.20
2023-03-28T06:27:47.932Z,-0.20
2023-03-28T06:30:15.456Z,-0.10
2023-03-28T06:32:42.309Z,-0.10
2023-03-28T06:35:09.305Z,-0.10
2023-03-28T06:37:36.124Z,0.00
2023-03-28T06:40:03.648Z,0.00
2023-03-28T06:42:30.764Z,0.00
2023-03-28T06:44:57.624Z,0.10
2023-03-28T06:47:24.467Z,0.20
2023-03-28T06:49:51.286Z,0.30
2023-03-28T06:52:18.209Z,0.30
2023-03-28T06:54:47.199Z,0.30
2023-03-28T06:57:16.527Z,0.30
2023-03-28T06:59:43.591Z,0.40
2023-03-28T07:02:11.708Z,0.40
2023-03-28T07:04:38.650Z,0.40
2023-03-28T07:07:06.231Z,0.50
2023-03-28T07:09:33.074Z,0.60
2023-03-28T07:11:59.873Z,0.60
2023-03-28T07:14:26.872Z,0.70
2023-03-28T07:16:53.760Z,0.80
2023-03-28T07:19:20.974Z,0.90
2023-03-28T07:21:48.032Z,1.00
2023-03-28T07:24:15.063Z,0.90
2023-03-28T07:26:42.067Z,0.90
2023-03-28T07:29:08.926Z,1.00
2023-03-28T07:31:35.789Z,1.00
2023-03-28T07:34:02.829Z,1.10
2023-03-28T07:36:29.842Z,1.10
2023-03-28T07:38:57.159Z,1.10
2023-03-28T07:41:24.611Z,1.20
2023-03-28T07:43:51.630Z,1.30
2023-03-28T07:46:21.009Z,1.30
2023-03-28T07:48:48.043Z,1.40
2023-03-28T07:51:14.901Z,1.50
2023-03-28T07:53:41.992Z,1.50
2023-03-28T07:56:12.734Z,1.60
2023-03-28T07:58:41.234Z,1.60
2023-03-28T08:01:10.009Z,1.70
2023-03-28T08:03:37.149Z,1.80
2023-03-28T08:06:20.112Z,1.90
2023-03-28T08:08:55.588Z,1.90
2023-03-28T08:11:22.961Z,2.00
2023-03-28T08:13:49.782Z,2.00
2023-03-28T08:16:16.621Z,2.10
2023-03-28T08:18:43.503Z,2.20
2023-03-28T08:21:10.324Z,2.20
2023-03-28T08:23:37.281Z,2.30
2023-03-28T08:26:06.298Z,2.40
2023-03-28T08:28:34.603Z,2.40
2023-03-28T08:31:02.212Z,2.50
2023-03-28T08:33:29.303Z,2.50
2023-03-28T08:35:56.935Z,2.60
2023-03-28T08:38:24.235Z,2.70
2023-03-28T08:41:07.222Z,2.70
2023-03-28T08:43:52.612Z,2.80
2023-03-28T08:46:22.322Z,2.90
2023-03-28T08:48:51.938Z,2.90
2023-03-28T08:51:29.143Z,3.00
2023-03-28T08:54:14.847Z,3.20
2023-03-28T08:56:45.669Z,3.30
2023-03-28T08:59:16.085Z,3.50
2023-03-28T09:01:44.018Z,3.60
2023-03-28T09:04:22.201Z,3.60
2023-03-28T09:06:49.615Z,3.70
2023-03-28T09:09:34.787Z,3.80
2023-03-28T09:12:16.840Z,3.80
2023-03-28T09:14:50.736Z,3.80
2023-03-28T09:17:40.541Z,4.00
2023-03-28T09:20:17.930Z,4.00
2023-03-28T09:22:57.038Z,4.10
2023-03-28T09:25:39.110Z,4.20
2023-03-28T09:28:14.990Z,4.40
2023-03-28T09:30:45.440Z,4.50
2023-03-28T09:33:18.671Z,4.60
2023-03-28T09:35:47.147Z,4.60
2023-03-28T09:38:22.801Z,4.60
2023-03-28T09:40:52.263Z,4.70
2023-03-28T09:43:19.302Z,4.90
2023-03-28T09:45:59.699Z,5.00
2023-03-28T09:48:32.292Z,5.20
2023-03-28T09:51:00.955Z,5.30
2023-03-28T09:53:33.283Z,5.40
2023-03-28T09:56:06.577Z,5.80
2023-03-28T09:58:53.639Z,5.90
2023-03-28T10:01:32.325Z,5.90
2023-03-28T10:04:00.425Z,5.90
2023-03-28T10:06:30.092Z,5.90
2023-03-28T10:09:18.471Z,5.80
2023-03-28T10:11:59.968Z,5.80
2023-03-28T10:14:43.576Z,5.80
2023-03-28T10:17:35.414Z,5.90
2023-03-28T10:20:18.996Z,5.90
2023-03-28T10:22:47.894Z,5.90
2023-03-28T10:25:21.328Z,5.90
2023-03-28T10:27:49.166Z,6.00
2023-03-28T10:30:27.467Z,6.00
2023-03-28T10:33:26.967Z,6.20
2023-03-28T10:35:58.693Z,6.30
2023-03-28T10:38:31.510Z,6.30
2023-03-28T10:41:01.681Z,6.40
2023-03-28T10:43:34.028Z,6.60
2023-03-28T10:46:22.335Z,6.70
2023-03-28T10:48:52.574Z,6.70
2023-03-28T10:51:23.962Z,6.80
2023-03-28T10:54:06.656Z,6.90
2023-03-28T10:56:33.826Z,7.00
2023-03-28T10:59:10.988Z,7.10
2023-03-28T11:02:08.922Z,7.20
2023-03-28T11:04:41.718Z,7.30
2023-03-28T11:07:15.694Z,7.40
2023-03-28T11:10:16.555Z,7.40
2023-03-28T11:12:59.231Z,7.40
2023-03-28T11:15:43.036Z,7.50
2023-03-28T11:18:37.776Z,7.60
2023-03-28T11:21:19.477Z,7.70
2023-03-28T11:23:50.771Z,7.70
2023-03-28T11:26:25.645Z,7.80
2023-03-28T11:29:06.979Z,7.90
2023-03-28T11:31:48.335Z,8.10
2023-03-28T11:34:37.616Z,8.10
2023-03-28T11:37:22.745Z,8.20
2023-03-28T11:39:54.642Z,8.20
2023-03-28T11:42:29.437Z,8.20
2023-03-28T11:44:59.415Z,8.20
2023-03-28T11:47:35.057Z,8.20
2023-03-28T11:50:09.236Z,8.20
2023-03-28T11:52:40.917Z,8.40
2023-03-28T11:55:23.817Z,8.40
2023-03-28T11:58:26.278Z,8.50
2023-03-28T12:00:59.110Z,8.60
2023-03-28T12:03:46.526Z,8.80
2023-03-28T12:07:02.535Z,9.00
2023-03-28T12:09:42.815Z,9.20
2023-03-28T12:12:31.538Z,9.30
2023-03-28T12:15:17.269Z,9.40
2023-03-28T12:17:53.716Z,9.50
2023-03-28T12:20:46.513Z,9.70
2023-03-28T12:23:37.819Z,9.70
2023-03-28T12:26:11.778Z,9.80
2023-03-28T12:28:45.446Z,9.80
2023-03-28T12:31:25.188Z,9.80
2023-03-28T12:34:03.896Z,9.70
2023-03-28T12:36:44.059Z,9.80
2023-03-28T12:39:34.947Z,9.70
2023-03-28T12:42:04.463Z,9.80
2023-03-28T12:44:55.802Z,9.80
2023-03-28T12:47:25.922Z,9.80
2023-03-28T12:50:12.375Z,9.90
2023-03-28T12:52:42.039Z,9.90
2023-03-28T12:55:31.444Z,9.90
2023-03-28T12:58:28.524Z,10.00
2023-03-28T13:01:21.485Z,10.10
2023-03-28T13:03:48.334Z,10.10
2023-03-28T13:06:36.663Z,10.30
2023-03-28T13:09:28.055Z,10.30
2023-03-28T13:12:37.670Z,10.40
2023-03-28T13:15:13.580Z,10.40
2023-03-28T13:17:48.326Z,10.50
2023-03-28T13:20:15.643Z,10.70
2023-03-28T13:22:53.728Z,10.70
2023-03-28T13:25:32.511Z,10.70
2023-03-28T13:28:11.556Z,10.70
2023-03-28T13:30:43.414Z,10.80
2023-03-28T13:33:31.162Z,10.80
2023-03-28T13:35:58.016Z,10.80
2023-03-28T13:38:28.124Z,10.90
2023-03-28T13:41:02.735Z,10.90
2023-03-28T13:43:36.001Z,10.90
2023-03-28T13:46:17.263Z,10.90
2023-03-28T13:48:52.625Z,10.90
2023-03-28T13:51:23.656Z,10.90
2023-03-28T13:53:50.768Z,11.00
2023-03-28T13:56:22.314Z,10.90
2023-03-28T13:58:51.059Z,11.00
2023-03-28T14:01:26.333Z,11.00
2023-03-28T14:03:54.398Z,11.00
2023-03-28T14:06:26.246Z,11.00
2023-03-28T14:08:55.845Z,11.00
2023-03-28T14:11:32.907Z,11.00
2023-03-28T14:14:09.479Z,11.00
2023-03-28T14:16:37.139Z,11.10
2023-03-28T14:19:05.677Z,11.10
2023-03-28T14:21:33.162Z,11.10
2023-03-28T14:24:01.933Z,11.10
2023-03-28T14:26:31.342Z,11.10
2023-03-28T14:29:04.015Z,11.10
2023-03-28T14:31:37.136Z,11.20
2023-03-28T14:34:30.447Z,11.10
2023-03-28T14:37:06.258Z,11.10
2023-03-28T14:39:35.357Z,11.00
2023-03-28T14:42:05.369Z,11.00
2023-03-28T14:44:36.721Z,11.00
2023-03-28T14:47:03.857Z,11.00
2023-03-28T14:49:30.984Z,10.90
2023-03-28T14:51:59.852Z,10.90
2023-03-28T14:54:36.856Z,10.90
2023-03-28T14:57:05.011Z,10.90
2023-03-28T14:59:41.243Z,10.90
2023-03-28T15:02:29.094Z,10.90
2023-03-28T15:05:00.566Z,10.90
2023-03-28T15:07:28.692Z,10.90
2023-03-28T15:10:18.430Z,10.90
2023-03-28T15:12:59.236Z,10.90
2023-03-28T15:15:31.593Z,10.90
2023-03-28T15:18:00.667Z,10.90
2023-03-28T15:20:32.073Z,10.80
2023-03-28T15:23:01.800Z,10.80
2023-03-28T15:25:29.672Z,10.70
2023-03-28T15:28:01.604Z,10.80
2023-03-28T15:30:31.078Z,10.80
2023-03-28T15:33:04.535Z,10.80
2023-03-28T15:35:39.226Z,10.80
2023-03-28T15:38:17.152Z,10.90
2023-03-28T15:40:51.954Z,10.90
2023-03-28T15:43:29.627Z,10.90
2023-03-28T15:46:02.001Z,10.80
2023-03-28T15:48:34.366Z,10.80
2023-03-28T15:51:04.671Z,10.70
2023-03-28T15:53:32.251Z,10.70
2023-03-28T15:56:14.209Z,10.70
2023-03-28T15:58:43.373Z,10.60
2023-03-28T16:01:25.650Z,10.50
2023-03-28T16:04:23.293Z,10.40
2023-03-28T16:06:54.970Z,10.40
2023-03-28T16:09:23.715Z,10.50
2023-03-28T16:11:59.917Z,10.50
2023-03-28T16:14:26.864Z,10.50
2023-03-28T16:16:55.151Z,10.40
2023-03-28T16:19:27.185Z,10.40
2023-03-28T16:21:54.284Z,10.40
2023-03-28T16:24:21.512Z,10.40
2023-03-28T16:26:48.449Z,10.30
2023-03-28T16:29:15.329Z,10.20
2023-03-28T16:31:42.780Z,10.10
2023-03-28T16:34:10.151Z,10.00
2023-03-28T16:36:38.485Z,9.90
2023-03-28T16:39:07.074Z,9.90
2023-03-28T16:41:36.686Z,9.80
2023-03-28T16:44:04.255Z,9.80
2023-03-28T16:46:31.559Z,9.80
2023-03-28T16:48:58.548Z,9.80
2023-03-28T16:51:25.691Z,9.70
2023-03-28T16:53:52.554Z,9.60
2023-03-28T16:56:19.702Z,9.60
2023-03-28T16:58:46.616Z,9.40
2023-03-28T17:01:19.773Z,9.40
2023-03-28T17:03:47.287Z,9.30
2023-03-28T17:06:16.637Z,9.20
2023-03-28T17:08:43.955Z,9.10
2023-03-28T17:11:12.124Z,9.10
2023-03-28T17:13:40.083Z,8.90
2023-03-28T17:16:08.735Z,9.00
2023-03-28T17:18:36.129Z,9.00
2023-03-28T17:21:06.751Z,8.90
2023-03-28T17:23:34.554Z,8.80
2023-03-28T17:26:02.005Z,8.80
2023-03-28T17:28:29.697Z,8.80
2023-03-28T17:30:56.897Z,8.70
2023-03-28T17:33:24.081Z,8.80
2023-03-28T17:35:51.186Z,8.70
2023-03-28T17:38:18.220Z,8.60
2023-03-28T17:40:48.788Z,8.70
2023-03-28T17:43:16.049Z,8.70
2023-03-28T17:45:43.203Z,8.60
2023-03-28T17:48:12.669Z,8.60
2023-03-28T17:50:39.702Z,8.50
2023-03-28T17:53:06.938Z,8.50
2023-03-28T17:55:34.352Z,8.50
2023-03-28T17:58:01.209Z,8.50
2023-03-28T18:00:30.272Z,8.30
2023-03-28T18:02:58.345Z,8.40
2023-03-28T18:05:25.432Z,8.20
2023-03-28T18:07:52.430Z,8.20
2023-03-28T18:10:19.218Z,8.20
2023-03-28T18:12:46.028Z,8.10
2023-03-28T18:15:13.427Z,8.10
2023-03-28T18:17:40.478Z,8.10
2023-03-28T18:20:09.015Z,8.20
2023-03-28T18:22:36.730Z,8.00
2023-03-28T18:25:03.797Z,7.90
2023-03-28T18:27:30.661Z,7.80
2023-03-28T18:29:57.460Z,7.80
2023-03-28T18:32:24.756Z,7.70
2023-03-28T18:34:52.061Z,7.70
2023-03-28T18:37:18.957Z,7.70
2023-03-28T18:39:46.426Z,7.70
2023-03-28T18:42:13.281Z,7.80
2023-03-28T18:44:40.936Z,7.70
2023-03-28T18:47:07.823Z,7.70
2023-03-28T18:49:34.944Z,7.60
2023-03-28T18:52:04.635Z,7.60
2023-03-28T18:54:32.760Z,7.50
2023-03-28T18:57:00.208Z,7.50
2023-03-28T18:59:27.344Z,7.40
2023-03-28T19:01:54.689Z,7.40
2023-03-28T19:04:23.414Z,7.40
2023-03-28T19:06:52.519Z,7.40
2023-03-28T19:09:19.878Z,7.40
2023-03-28T19:11:50.420Z,7.40
2023-03-28T19:14:17.268Z,7.30
2023-03-28T19:16:44.123Z,7.30
2023-03-28T19:19:11.064Z,7.30
2023-03-28T19:21:37.889Z,7.20
2023-03-28T19:24:05.144Z,7.20
2023-03-28T19:26:32.055Z,7.20
2023-03-28T19:28:59.156Z,7.20
2023-03-28T19:31:26.071Z,7.20
2023-03-28T19:33:52.944Z,7.10
2023-03-28T19:36:20.108Z,7.10
2023-03-28T19:38:47.488Z,7.10
2023-03-28T19:41:19.549Z,7.00
2023-03-28T19:43:48.010Z,7.00
2023-03-28T19:46:23.888Z,7.00
2023-03-28T19:48:53.107Z,6.90
2023-03-28T19:51:20.051Z,6.90
2023-03-28T19:53:46.878Z,7.00
2023-03-28T19:56:14.258Z,6.90
2023-03-28T19:58:41.227Z,6.80
2023-03-28T20:01:08.184Z,6.80
2023-03-28T20:03:35.170Z,6.80
2023-03-28T20:06:07.512Z,6.80
2023-03-28T20:08:34.668Z,6.80
2023-03-28T20:11:02.670Z,6.80
2023-03-28T20:13:30.049Z,6.80
2023-03-28T20:15:56.867Z,6.70
2023-03-28T20:18:24.307Z,6.70
2023-03-28T20:20:52.442Z,6.80
2023-03-28T20:23:22.329Z,6.80
2023-03-28T20:25:50.402Z,6.70
2023-03-28T20:28:17.220Z,6.80
2023-03-28T20:30:45.327Z,6.80
2023-03-28T20:33:12.274Z,6.70
2023-03-28T20:35:41.900Z,6.70
2023-03-28T20:38:09.456Z,6.70
2023-03-28T20:40:39.923Z,6.70
2023-03-28T20:43:09.936Z,6.60
2023-03-28T20:45:46.020Z,6.60
2023-03-28T20:48:16.365Z,6.70
2023-03-28T20:50:46.428Z,6.70
2023-03-28T20:53:13.363Z,6.70
2023-03-28T20:55:40.508Z,6.70
2023-03-28T20:58:08.772Z,6.60
2023-03-28T21:00:35.917Z,6.60
2023-03-28T21:03:03.749Z,6.60
2023-03-28T21:05:31.268Z,6.60
2023-03-28T21:07:59.140Z,6.60
2023-03-28T21:10:26.755Z,6.60
2023-03-28T21:12:53.661Z,6.60
2023-03-28T21:15:20.611Z,6.60
2023-03-28T21:17:49.531Z,6.60
2023-03-28T21:20:16.727Z,6.60
2023-03-28T21:22:43.564Z,6.60
2023-03-28T21:25:10.675Z,6.60
2023-03-28T21:27:37.620Z,6.50
2023-03-28T21:30:08.058Z,6.50
2023-03-28T21:32:35.906Z,6.50
2023-03-28T21:35:04.115Z,6.50
2023-03-28T21:37:31.122Z,6.50
2023-03-28T21:39:57.954Z,6.50
2023-03-28T21:42:27.982Z,6.50
2023-03-28T21:44:54.952Z,6.50
2023-03-28T21:47:21.758Z,6.50
2023-03-28T21:49:49.514Z,6.50
2023-03-28T21:52:16.533Z,6.50
2023-03-28T21:54:43.371Z,6.50
2023-03-28T21:57:10.520Z,6.50
2023-03-28T21:59:38.051Z,6.50
2023-03-28T22:02:05.253Z,6.50
2023-03-28T22:04:32.321Z,6.50
2023-03-28T22:06:59.126Z,6.50
2023-03-28T22:09:25.909Z,6.50
2023-03-28T22:11:52.799Z,6.50
2023-03-28T22:14:19.640Z,6.50
2023-03-28T22:16:47.418Z,6.50
2023-03-28T22:19:14.712Z,6.50
2023-03-28T22:21:41.543Z,6.50
2023-03-28T22:24:13.115Z,6.50
2023-03-28T22:26:41.201Z,6.50
2023-03-28T22:29:08.456Z,6.50
2023-03-28T22:31:35.495Z,6.50
2023-03-28T22:34:02.675Z,6.50
2023-03-28T22:36:29.498Z,6.50
2023-03-28T22:38:57.177Z,6.50
2023-03-28T22:41:24.111Z,6.50
2023-03-28T22:43:51.076Z,6.50
2023-03-28T22:46:18.330Z,6.50
2023-03-28T22:48:45.306Z,6.50
2023-03-28T22:51:12.268Z,6.60
2023-03-28T22:53:39.763Z,6.50
2023-03-28T22:56:07.525Z,6.60
2023-03-28T22:58:34.598Z,6.60
2023-03-28T23:01:02.789Z,6.60
2023-03-28T23:03:29.879Z,6.60
2023-03-28T23:06:01.464Z,6.60
2023-03-28T23:08:28.378Z,6.60
2023-03-28T23:10:55.211Z,6.60
2023-03-28T23:13:22.237Z,6.70
2023-03-28T23:15:49.060Z,6.60
2023-03-28T23:18:16.567Z,6.70
2023-03-28T23:20:49.743Z,6.60
2023-03-28T23:23:17.199Z,6.60
2023-03-28T23:25:48.084Z,6.70
2023-03-28T23:28:14.912Z,6.60
2023-03-28T23:30:42.154Z,6.60
2023-03-28T23:33:10.040Z,6.70
2023-03-28T23:35:37.059Z,6.70
2023-03-28T23:38:05.113Z,6.60
2023-03-28T23:40:32.226Z,6.70
2023-03-28T23:42:59.177Z,6.60
2023-03-28T23:45:26.165Z,6.60
2023-03-28T23:47:53.069Z,6.70
2023-03-28T23:50:19.953Z,6.70
2023-03-28T23:52:46.854Z,6.60
2023-03-28T23:55:14.072Z,6.60
2023-03-28T23:57:41.382Z,6.60
